createdAt,value
2023-02-11T00:01:10.526Z,17.23
2023-02-11T00:03:38.801Z,16.00
2023-02-11T00:06:11.152Z,17.02
2023-02-11T00:08:39.038Z,17.90
2023-02-11T00:11:06.478Z,17.23
2023-02-11T00:13:33.669Z,12.95
2023-02-11T00:16:05.969Z,19.55
2023-02-11T00:18:32.743Z,16.02
2023-02-11T00:20:59.842Z,16.50
2023-02-11T00:23:26.691Z,21.58
2023-02-11T00:25:53.712Z,17.63
2023-02-11T00:28:20.491Z,17.42
2023-02-11T00:30:57.876Z,17.83
2023-02-11T00:33:24.893Z,17.60
2023-02-11T00:35:52.322Z,17.25
2023-02-11T00:38:19.405Z,17.85
2023-02-11T00:40:46.425Z,20.55
2023-02-11T00:43:13.244Z,18.08
2023-02-11T00:45:40.422Z,19.15
2023-02-11T00:48:07.198Z,19.67
2023-02-11T00:50:34.273Z,19.90
2023-02-11T00:53:01.063Z,17.98
2023-02-11T00:55:28.123Z,20.30
2023-02-11T00:57:58.846Z,18.67
2023-02-11T01:00:26.834Z,18.70
2023-02-11T01:02:53.629Z,18.05
2023-02-11T01:05:21.451Z,17.25
2023-02-11T01:07:48.326Z,19.63
2023-02-11T01:10:15.387Z,17.00
2023-02-11T01:12:42.180Z,16.80
2023-02-11T01:15:14.277Z,18.85
2023-02-11T01:17:41.072Z,18.27
2023-02-11T01:20:12.392Z,18.17
2023-02-11T01:22:39.709Z,20.83
2023-02-11T01:25:07.817Z,18.48
2023-02-11T01:27:34.610Z,17.58
2023-02-11T01:30:02.897Z,18.90
2023-02-11T01:32:29.696Z,18.65
2023-02-11T01:34:56.770Z,19.10
2023-02-11T01:37:23.726Z,19.52
2023-02-11T01:39:50.818Z,19.65
2023-02-11T01:42:23.203Z,19.65
2023-02-11T01:44:52.179Z,21.27
2023-02-11T01:47:20.259Z,19.15
2023-02-11T01:49:59.116Z,20.50
2023-02-11T01:52:39.390Z,19.40
2023-02-11T01:55:31.086Z,18.70
2023-02-11T01:58:02.514Z,19.52
2023-02-11T02:00:36.474Z,21.25
2023-02-11T02:03:08.421Z,23.63
2023-02-11T02:06:01.836Z,22.63
2023-02-11T02:08:39.076Z,24.58
2023-02-11T02:11:06.673Z,23.38
2023-02-11T02:13:35.165Z,24.45
2023-02-11T02:16:07.888Z,23.77
2023-02-11T02:19:00.595Z,24.83
2023-02-11T02:22:05.489Z,23.33
2023-02-11T02:24:32.837Z,22.48
2023-02-11T02:27:25.128Z,24.67
2023-02-11T02:29:54.726Z,23.17
2023-02-11T02:32:38.197Z,23.80
2023-02-11T02:35:04.958Z,21.10
2023-02-11T02:37:41.133Z,23.40
2023-02-11T02:40:23.726Z,24.08
2023-02-11T02:42:52.429Z,21.65
2023-02-11T02:45:19.660Z,24.23
2023-02-11T02:47:46.749Z,24.42
2023-02-11T02:50:17.634Z,23.83
2023-02-11T02:52:59.506Z,23.83
2023-02-11T02:55:53.796Z,22.05
2023-02-11T02:58:39.126Z,21.90
2023-02-11T03:01:16.956Z,23.38
2023-02-11T03:04:13.374Z,22.80
2023-02-11T03:06:52.174Z,21.60
2023-02-11T03:09:29.214Z,22.45
2023-02-11T03:11:56.462Z,25.35
2023-02-11T03:14:26.865Z,23.92
2023-02-11T03:16:55.909Z,22.75
2023-02-11T03:19:27.463Z,22.50
2023-02-11T03:21:56.055Z,23.17
2023-02-11T03:24:33.137Z,26.70
2023-02-11T03:27:39.020Z,23.27
2023-02-11T03:30:14.656Z,21.60
2023-02-11T03:32:56.033Z,22.75
2023-02-11T03:36:00.297Z,22.23
2023-02-11T03:38:33.279Z,20.55
2023-02-11T03:41:02.593Z,23.95
2023-02-11T03:43:34.630Z,21.77
2023-02-11T03:46:03.558Z,24.48
2023-02-11T03:48:35.117Z,24.42
2023-02-11T03:51:05.843Z,22.83
2023-02-11T03:53:32.597Z,23.33
2023-02-11T03:56:05.075Z,24.08
2023-02-11T03:58:31.886Z,25.20
2023-02-11T04:00:59.107Z,25.48
2023-02-11T04:03:25.988Z,23.50
2023-02-11T04:05:53.066Z,24.58
2023-02-11T04:08:20.604Z,24.80
2023-02-11T04:10:47.682Z,25.95
2023-02-11T04:13:15.116Z,24.88
2023-02-11T04:15:42.220Z,26.63
2023-02-11T04:18:08.983Z,25.38
2023-02-11T04:20:36.028Z,23.23
2023-02-11T04:23:02.821Z,24.60
2023-02-11T04:25:30.611Z,22.25
2023-02-11T04:27:57.427Z,27.13
2023-02-11T04:30:24.540Z,22.60
2023-02-11T04:32:51.367Z,23.05
2023-02-11T04:35:18.449Z,23.17
2023-02-11T04:37:45.217Z,21.00
2023-02-11T04:40:12.437Z,22.92
2023-02-11T04:42:39.241Z,22.75
2023-02-11T04:45:07.865Z,23.65
2023-02-11T04:47:34.851Z,24.73
2023-02-11T04:50:01.949Z,25.00
2023-02-11T04:52:28.719Z,22.05
2023-02-11T04:54:55.757Z,23.40
2023-02-11T04:57:22.516Z,22.98
2023-02-11T04:59:49.589Z,23.90
2023-02-11T05:02:16.385Z,24.00
2023-02-11T05:04:43.392Z,25.90
2023-02-11T05:07:10.181Z,23.48
2023-02-11T05:09:37.273Z,25.63
2023-02-11T05:12:04.343Z,28.45
2023-02-11T05:14:31.433Z,25.75
2023-02-11T05:16:58.316Z,27.25
2023-02-11T05:19:25.396Z,24.65
2023-02-11T05:22:02.057Z,26.98
2023-02-11T05:24:31.712Z,24.00
2023-02-11T05:26:58.601Z,27.23
2023-02-11T05:29:25.784Z,27.10
2023-02-11T05:31:53.808Z,25.05
2023-02-11T05:34:20.905Z,27.25
2023-02-11T05:36:47.745Z,25.33
2023-02-11T05:39:14.788Z,23.92
2023-02-11T05:41:41.561Z,27.42
2023-02-11T05:44:08.609Z,27.13
2023-02-11T05:46:35.546Z,25.98
2023-02-11T05:49:03.191Z,23.92
2023-02-11T05:51:29.971Z,26.30
2023-02-11T05:53:57.005Z,27.00
2023-02-11T05:56:23.766Z,27.77
2023-02-11T05:58:50.873Z,25.88
2023-02-11T06:01:17.639Z,26.83
2023-02-11T06:03:44.738Z,26.40
2023-02-11T06:06:12.737Z,26.02
2023-02-11T06:08:39.895Z,26.98
2023-02-11T06:11:06.688Z,26.77
2023-02-11T06:13:33.845Z,26.52
2023-02-11T06:16:02.759Z,25.02
2023-02-11T06:18:29.927Z,24.13
2023-02-11T06:20:56.789Z,26.02
2023-02-11T06:23:23.924Z,26.67
2023-02-11T06:25:51.681Z,23.98
2023-02-11T06:28:19.595Z,23.52
2023-02-11T06:30:46.392Z,26.27
2023-02-11T06:33:13.493Z,25.63
2023-02-11T06:35:40.391Z,25.67
2023-02-11T06:38:07.507Z,24.98
2023-02-11T06:40:34.446Z,22.15
2023-02-11T06:43:01.540Z,24.40
2023-02-11T06:45:28.334Z,23.35
2023-02-11T06:47:55.397Z,26.52
2023-02-11T06:50:22.401Z,26.50
2023-02-11T06:52:49.581Z,26.73
2023-02-11T06:55:16.986Z,23.38
2023-02-11T06:57:44.083Z,23.30
2023-02-11T07:00:11.538Z,22.63
2023-02-11T07:02:38.717Z,25.67
2023-02-11T07:05:07.473Z,25.35
2023-02-11T07:07:34.643Z,25.92
2023-02-11T07:10:04.048Z,23.83
2023-02-11T07:12:31.779Z,24.75
2023-02-11T07:14:58.540Z,28.83
2023-02-11T07:17:25.656Z,29.25
2023-02-11T07:19:52.503Z,27.38
2023-02-11T07:22:19.786Z,26.67
2023-02-11T07:24:46.731Z,25.42
2023-02-11T07:27:13.872Z,25.33
2023-02-11T07:29:42.664Z,27.45
2023-02-11T07:32:09.808Z,24.58
2023-02-11T07:34:36.963Z,26.80
2023-02-11T07:37:04.104Z,25.20
2023-02-11T07:39:31.028Z,24.42
2023-02-11T07:41:58.445Z,25.52
2023-02-11T07:44:25.355Z,27.85
2023-02-11T07:46:53.041Z,23.20
2023-02-11T07:49:19.793Z,26.42
2023-02-11T07:51:47.895Z,24.42
2023-02-11T07:54:15.628Z,22.75
2023-02-11T07:56:42.681Z,24.95
2023-02-11T07:59:11.106Z,25.70
2023-02-11T08:01:38.519Z,24.70
2023-02-11T08:04:05.704Z,24.63
2023-02-11T08:06:34.537Z,21.55
2023-02-11T08:09:14.584Z,28.13
2023-02-11T08:11:41.719Z,23.55
2023-02-11T08:14:08.852Z,24.65
2023-02-11T08:16:38.833Z,24.52
2023-02-11T08:19:10.297Z,26.67
2023-02-11T08:21:37.601Z,22.15
2023-02-11T08:24:04.632Z,28.73
2023-02-11T08:26:34.727Z,26.02
2023-02-11T08:29:06.227Z,29.92
2023-02-11T08:31:36.828Z,27.73
2023-02-11T08:34:03.862Z,26.70
2023-02-11T08:36:36.315Z,28.30
2023-02-11T08:39:22.698Z,27.30
2023-02-11T08:41:56.551Z,26.40
2023-02-11T08:44:25.783Z,26.45
2023-02-11T08:46:53.539Z,26.25
2023-02-11T08:49:20.706Z,25.50
2023-02-11T08:51:48.840Z,27.23
2023-02-11T08:54:15.885Z,26.33
2023-02-11T08:56:43.719Z,20.38
2023-02-11T08:59:13.762Z,24.45
2023-02-11T09:01:40.884Z,25.00
2023-02-11T09:04:07.828Z,22.85
2023-02-11T09:06:34.916Z,23.88
2023-02-11T09:09:01.704Z,21.67
2023-02-11T09:11:32.399Z,19.90
2023-02-11T09:13:59.808Z,18.38
2023-02-11T09:16:29.485Z,9.70
2023-02-11T09:19:01.094Z,15.18
2023-02-11T09:21:29.027Z,14.73
2023-02-11T09:23:56.384Z,16.45
2023-02-11T09:26:26.486Z,16.48
2023-02-11T09:28:53.503Z,15.65
2023-02-11T09:31:26.075Z,14.90
2023-02-11T09:33:55.889Z,17.17
2023-02-11T09:36:26.105Z,16.33
2023-02-11T09:38:53.591Z,15.55
2023-02-11T09:41:23.586Z,15.80
2023-02-11T09:43:57.142Z,17.60
2023-02-11T09:48:54.607Z,14.20
2023-02-11T09:51:30.560Z,16.80
2023-02-11T09:54:05.637Z,15.68
2023-02-11T09:56:32.852Z,16.52
2023-02-11T09:58:59.818Z,16.92
2023-02-11T10:01:39.602Z,16.40
2023-02-11T10:04:24.562Z,16.98
2023-02-11T10:06:57.614Z,16.15
2023-02-11T10:09:38.293Z,16.73
2023-02-11T10:12:17.853Z,17.52
2023-02-11T10:15:08.451Z,16.15
2023-02-11T10:17:39.114Z,15.88
2023-02-11T10:20:24.944Z,17.52
2023-02-11T10:22:55.679Z,16.42
2023-02-11T10:25:24.268Z,19.13
2023-02-11T10:27:52.464Z,17.98
2023-02-11T10:30:37.601Z,17.25
2023-02-11T10:33:30.261Z,17.52
2023-02-11T10:35:57.026Z,16.42
2023-02-11T10:38:24.673Z,17.65
2023-02-11T10:40:51.735Z,15.55
2023-02-11T10:43:23.582Z,17.23
2023-02-11T10:45:52.910Z,18.35
2023-02-11T10:48:44.184Z,16.63
2023-02-11T10:51:12.830Z,18.15
2023-02-11T10:53:41.846Z,17.25
2023-02-11T10:56:12.601Z,17.90
2023-02-11T10:58:59.977Z,17.10
2023-02-11T11:01:52.076Z,17.67
2023-02-11T11:04:32.879Z,17.52
2023-02-11T11:07:21.728Z,18.13
2023-02-11T11:10:06.194Z,17.08
2023-02-11T11:12:48.427Z,18.75
2023-02-11T11:15:21.791Z,16.55
2023-02-11T11:18:21.435Z,18.52
2023-02-11T11:21:05.927Z,17.42
2023-02-11T11:23:38.246Z,11.98
2023-02-11T11:26:09.161Z,17.05
2023-02-11T11:28:53.425Z,15.25
2023-02-11T11:31:46.917Z,15.40
2023-02-11T11:34:33.637Z,16.65
2023-02-11T11:37:10.447Z,15.70
2023-02-11T11:39:41.536Z,15.95
2023-02-11T11:42:32.745Z,16.92
2023-02-11T11:45:23.093Z,15.30
2023-02-11T11:48:22.624Z,16.45
2023-02-11T11:50:57.437Z,16.63
2023-02-11T11:53:49.255Z,14.77
2023-02-11T11:56:22.591Z,15.25
2023-02-11T11:58:53.166Z,15.60
2023-02-11T12:01:48.418Z,15.98
2023-02-11T12:04:40.329Z,13.10
2023-02-11T12:07:40.914Z,12.98
2023-02-11T12:10:35.638Z,13.35
2023-02-11T12:15:36.594Z,11.77
2023-02-11T12:18:38.164Z,12.43
2023-02-11T12:21:42.747Z,11.88
2023-02-11T12:24:57.325Z,12.43
2023-02-11T12:27:35.910Z,13.48
2023-02-11T12:30:08.365Z,12.23
2023-02-11T12:33:01.607Z,12.68
2023-02-11T12:35:53.205Z,12.57
2023-02-11T12:38:38.526Z,11.90
2023-02-11T12:41:13.268Z,11.60
2023-02-11T12:43:42.486Z,10.50
2023-02-11T12:46:39.141Z,9.65
2023-02-11T12:49:50.141Z,9.90
2023-02-11T12:52:34.418Z,9.95
2023-02-11T12:55:17.036Z,10.82
2023-02-11T12:57:46.169Z,9.55
2023-02-11T13:00:36.465Z,9.50
2023-02-11T13:03:12.021Z,9.82
2023-02-11T13:05:58.765Z,9.07
2023-02-11T13:08:33.688Z,11.20
2023-02-11T13:11:25.938Z,8.90
2023-02-11T13:14:26.978Z,9.10
2023-02-11T13:16:58.499Z,8.48
2023-02-11T13:19:37.752Z,8.82
2023-02-11T13:22:17.530Z,9.88
2023-02-11T13:25:07.576Z,8.63
2023-02-11T13:28:05.195Z,8.57
2023-02-11T13:30:35.284Z,9.82
2023-02-11T13:33:06.578Z,9.35
2023-02-11T13:35:37.543Z,8.27
2023-02-11T13:38:18.900Z,8.73
2023-02-11T13:40:57.570Z,8.93
2023-02-11T13:43:29.519Z,7.53
2023-02-11T13:46:15.522Z,8.10
2023-02-11T13:48:48.571Z,9.15
2023-02-11T13:51:17.813Z,9.07
2023-02-11T13:53:52.752Z,7.85
2023-02-11T13:56:35.233Z,7.90
2023-02-11T13:59:31.918Z,8.38
2023-02-11T14:02:20.411Z,9.48
2023-02-11T14:05:24.488Z,8.77
2023-02-11T14:08:28.234Z,8.37
2023-02-11T14:11:00.802Z,8.60
2023-02-11T14:13:33.357Z,9.75
2023-02-11T14:16:36.414Z,8.43
2023-02-11T14:19:03.971Z,9.18
2023-02-11T14:21:38.280Z,8.48
2023-02-11T14:24:05.160Z,8.98
2023-02-11T14:26:39.440Z,10.50
2023-02-11T14:29:16.241Z,10.88
2023-02-11T14:32:08.375Z,8.55
2023-02-11T14:34:44.025Z,9.13
2023-02-11T14:37:21.286Z,9.95
2023-02-11T14:40:03.141Z,8.70
2023-02-11T14:42:31.215Z,8.77
2023-02-11T14:45:05.142Z,9.35
2023-02-11T14:47:41.386Z,9.02
2023-02-11T14:50:26.014Z,8.80
2023-02-11T14:52:54.681Z,8.82
2023-02-11T14:55:29.489Z,9.60
2023-02-11T14:58:14.229Z,9.52
2023-02-11T15:00:54.812Z,9.18
2023-02-11T15:03:27.718Z,10.45
2023-02-11T15:06:08.281Z,9.05
2023-02-11T15:08:38.370Z,9.23
2023-02-11T15:11:12.046Z,9.75
2023-02-11T15:13:39.321Z,9.00
2023-02-11T15:16:09.359Z,9.18
2023-02-11T15:18:40.977Z,10.10
2023-02-11T15:21:08.489Z,9.30
2023-02-11T15:23:36.335Z,10.02
2023-02-11T15:26:11.904Z,10.68
2023-02-11T15:28:39.029Z,10.68
2023-02-11T15:31:15.565Z,9.82
2023-02-11T15:33:43.019Z,10.63
2023-02-11T15:36:12.684Z,9.23
2023-02-11T15:38:40.846Z,8.82
2023-02-11T15:41:08.126Z,8.52
2023-02-11T15:43:50.761Z,10.30
2023-02-11T15:46:23.324Z,9.75
2023-02-11T15:48:53.844Z,11.43
2023-02-11T15:51:25.408Z,10.35
2023-02-11T15:53:56.924Z,11.20
2023-02-11T15:56:30.778Z,10.85
2023-02-11T15:59:00.658Z,10.43
2023-02-11T16:01:33.725Z,10.40
2023-02-11T16:04:02.311Z,10.68
2023-02-11T16:06:39.427Z,11.18
2023-02-11T16:09:31.655Z,11.35
2023-02-11T16:12:03.574Z,12.10
2023-02-11T16:14:39.348Z,11.00
2023-02-11T16:17:11.189Z,12.27
2023-02-11T16:19:45.368Z,10.40
2023-02-11T16:24:46.405Z,11.88
2023-02-11T16:27:28.579Z,11.40
2023-02-11T16:29:56.924Z,12.73
2023-02-11T16:32:26.357Z,10.77
2023-02-11T16:34:59.113Z,10.05
2023-02-11T16:37:26.229Z,10.98
2023-02-11T16:39:57.163Z,11.43
2023-02-11T16:42:26.630Z,11.95
2023-02-11T16:44:53.692Z,12.13
2023-02-11T16:47:28.435Z,10.18
2023-02-11T16:49:56.955Z,10.68
2023-02-11T16:52:24.474Z,11.52
2023-02-11T16:54:51.947Z,10.57
2023-02-11T16:57:23.986Z,11.27
2023-02-11T16:59:51.541Z,11.23
2023-02-11T17:02:30.512Z,11.90
2023-02-11T17:05:15.337Z,10.75
2023-02-11T17:07:42.176Z,11.13
2023-02-11T17:10:17.208Z,11.77
2023-02-11T17:12:43.977Z,12.15
2023-02-11T17:15:11.106Z,12.32
2023-02-11T17:17:37.925Z,11.07
2023-02-11T17:20:05.850Z,12.27
2023-02-11T17:22:33.146Z,10.88
2023-02-11T17:25:00.287Z,12.10
2023-02-11T17:27:27.061Z,11.13
2023-02-11T17:29:54.169Z,11.68
2023-02-11T17:32:21.177Z,10.50
2023-02-11T17:34:48.279Z,10.50
2023-02-11T17:37:15.076Z,11.80
2023-02-11T17:39:42.181Z,12.35
2023-02-11T17:42:09.113Z,12.65
2023-02-11T17:44:36.276Z,12.68
2023-02-11T17:47:03.335Z,12.00
2023-02-11T17:49:30.381Z,12.27
2023-02-11T17:51:59.972Z,12.85
2023-02-11T17:54:27.154Z,12.65
2023-02-11T17:56:57.838Z,12.68
2023-02-11T17:59:25.988Z,12.20
2023-02-11T18:01:52.799Z,11.30
2023-02-11T18:04:20.355Z,12.90
2023-02-11T18:06:47.599Z,12.00
2023-02-11T18:09:14.676Z,11.57
2023-02-11T18:11:41.796Z,12.35
2023-02-11T18:14:10.702Z,12.73
2023-02-11T18:16:39.505Z,13.43
2023-02-11T18:19:07.722Z,12.45
2023-02-11T18:21:35.033Z,13.40
2023-02-11T18:24:07.016Z,13.02
2023-02-11T18:26:34.356Z,12.35
2023-02-11T18:29:01.801Z,11.50
2023-02-11T18:31:28.922Z,12.65
2023-02-11T18:33:56.044Z,12.90
2023-02-11T18:36:23.335Z,14.65
2023-02-11T18:38:52.646Z,12.88
2023-02-11T18:41:20.011Z,13.45
2023-02-11T18:43:47.114Z,12.50
2023-02-11T18:46:15.646Z,13.15
2023-02-11T18:48:44.756Z,11.52
2023-02-11T18:51:18.736Z,13.20
2023-02-11T18:53:46.599Z,13.38
2023-02-11T18:56:24.562Z,11.43
2023-02-11T18:58:52.118Z,11.95
2023-02-11T19:01:28.276Z,13.68
2023-02-11T19:03:57.776Z,11.23
2023-02-11T19:06:27.082Z,12.05
2023-02-11T19:08:58.273Z,13.70
2023-02-11T19:11:45.630Z,12.25
2023-02-11T19:14:13.959Z,11.60
2023-02-11T19:16:43.461Z,13.20
2023-02-11T19:19:10.716Z,13.32
2023-02-11T19:21:37.636Z,13.52
2023-02-11T19:24:07.458Z,11.93
2023-02-11T19:26:35.581Z,12.23
2023-02-11T19:29:03.567Z,12.23
2023-02-11T19:31:32.321Z,12.13
2023-02-11T19:34:01.235Z,12.43
2023-02-11T19:36:28.406Z,14.75
2023-02-11T19:38:55.649Z,14.13
2023-02-11T19:41:23.170Z,14.65
2023-02-11T19:43:53.451Z,16.10
2023-02-11T19:46:21.316Z,13.45
2023-02-11T19:48:48.856Z,13.65
2023-02-11T19:51:16.433Z,14.30
2023-02-11T19:53:45.059Z,14.02
2023-02-11T19:56:13.324Z,13.73
2023-02-11T19:58:41.539Z,13.30
2023-02-11T20:01:15.334Z,13.57
2023-02-11T20:03:42.830Z,13.00
2023-02-11T20:06:15.791Z,12.95
2023-02-11T20:08:43.194Z,12.40
2023-02-11T20:11:16.344Z,13.18
2023-02-11T20:13:44.228Z,12.48
2023-02-11T20:16:19.444Z,13.27
2023-02-11T20:18:47.772Z,13.05
2023-02-11T20:21:20.566Z,12.93
2023-02-11T20:23:49.905Z,12.60
2023-02-11T20:26:20.615Z,13.95
2023-02-11T20:28:49.240Z,13.68
2023-02-11T20:31:17.589Z,13.88
2023-02-11T20:33:45.654Z,13.95
2023-02-11T20:36:18.058Z,12.73
2023-02-11T20:38:45.725Z,12.57
2023-02-11T20:41:19.381Z,12.93
2023-02-11T20:43:51.828Z,12.57
2023-02-11T20:46:23.104Z,12.63
2023-02-11T20:48:51.690Z,11.45
2023-02-11T20:51:22.148Z,11.82
2023-02-11T20:53:51.177Z,11.68
2023-02-11T20:56:20.930Z,12.73
2023-02-11T20:58:48.922Z,11.38
2023-02-11T21:01:24.838Z,11.52
2023-02-11T21:03:54.709Z,10.32
2023-02-11T21:06:23.102Z,11.80
2023-02-11T21:08:50.690Z,12.13
2023-02-11T21:11:17.681Z,9.88
2023-02-11T21:13:44.842Z,9.77
2023-02-11T21:16:16.469Z,10.18
2023-02-11T21:18:43.751Z,9.82
2023-02-11T21:21:10.542Z,10.02
2023-02-11T21:23:39.589Z,11.60
2023-02-11T21:26:07.125Z,10.68
2023-02-11T21:28:35.187Z,13.13
2023-02-11T21:31:02.803Z,11.95
2023-02-11T21:33:30.486Z,12.07
2023-02-11T21:35:58.933Z,11.18
2023-02-11T21:38:26.550Z,11.52
2023-02-11T21:40:53.405Z,12.23
2023-02-11T21:43:20.954Z,11.98
2023-02-11T21:45:50.305Z,10.30
2023-02-11T21:48:18.083Z,10.30
2023-02-11T21:50:47.219Z,10.02
2023-02-11T21:53:14.789Z,11.52
2023-02-11T21:55:41.660Z,10.32
2023-02-11T21:58:09.548Z,10.02
2023-02-11T22:00:36.426Z,9.23
2023-02-11T22:03:03.529Z,10.02
2023-02-11T22:05:30.494Z,11.13
2023-02-11T22:07:57.608Z,9.77
2023-02-11T22:10:24.570Z,10.85
2023-02-11T22:12:51.688Z,10.98
2023-02-11T22:15:18.584Z,9.77
2023-02-11T22:17:45.605Z,10.23
2023-02-11T22:20:12.614Z,9.45
2023-02-11T22:22:39.792Z,9.48
2023-02-11T22:25:06.943Z,10.43
2023-02-11T22:27:34.105Z,10.98
2023-02-11T22:30:00.946Z,9.23
2023-02-11T22:32:28.189Z,11.20
2023-02-11T22:34:55.307Z,10.77
2023-02-11T22:37:22.322Z,9.95
2023-02-11T22:39:49.148Z,10.75
2023-02-11T22:42:16.167Z,9.13
2023-02-11T22:44:42.927Z,10.80
2023-02-11T22:47:10.120Z,8.10
2023-02-11T22:49:37.334Z,11.32
2023-02-11T22:52:04.573Z,9.93
2023-02-11T22:54:31.486Z,10.85
2023-02-11T22:56:58.549Z,10.20
2023-02-11T22:59:25.356Z,10.35
2023-02-11T23:01:52.485Z,11.15
2023-02-11T23:04:19.392Z,10.05
2023-02-11T23:06:47.759Z,9.82
2023-02-11T23:09:14.748Z,9.82
2023-02-11T23:11:42.045Z,8.05
2023-02-11T23:14:10.153Z,9.50
2023-02-11T23:16:37.279Z,9.68
2023-02-11T23:19:08.096Z,10.65
2023-02-11T23:21:38.074Z,9.73
2023-02-11T23:24:11.848Z,10.23
2023-02-11T23:26:41.007Z,10.55
2023-02-11T23:29:08.793Z,10.05
2023-02-11T23:31:39.906Z,10.60
2023-02-11T23:34:09.788Z,10.43
2023-02-11T23:36:37.287Z,9.55
2023-02-11T23:39:04.538Z,11.00
2023-02-11T23:41:31.624Z,9.73
2023-02-11T23:43:58.491Z,10.73
2023-02-11T23:46:26.822Z,11.48
2023-02-11T23:48:53.942Z,9.15
2023-02-11T23:51:21.819Z,9.60
2023-02-11T23:53:49.688Z,10.20
2023-02-11T23:56:19.726Z,9.30
2023-02-11T23:58:51.507Z,9.80
